createdAt,value
2018-06-02T00:00:20.206Z,100993.84
2018-06-02T00:02:47.703Z,100995.02
2018-06-02T00:05:15.220Z,100990.63
2018-06-02T00:07:42.712Z,100986.95
2018-06-02T00:10:10.222Z,100984.43
2018-06-02T00:12:37.714Z,100990.91
2018-06-02T00:15:05.310Z,100988.81
2018-06-02T00:17:32.860Z,100995.02
2018-06-02T00:20:00.387Z,100993.00
2018-06-02T00:22:27.881Z,100992.51
2018-06-02T00:24:55.434Z,100987.69
2018-06-02T00:27:22.948Z,100992.07
2018-06-02T00:29:50.438Z,100987.20
2018-06-02T00:32:17.935Z,100987.27
2018-06-02T00:34:45.481Z,100990.80
2018-06-02T00:37:12.945Z,100995.32
2018-06-02T00:39:40.466Z,100993.27
2018-06-02T00:42:07.935Z,100990.59
2018-06-02T00:44:35.459Z,100987.83
2018-06-02T00:47:02.981Z,100979.19
2018-06-02T00:49:30.457Z,100980.49
2018-06-02T00:51:57.972Z,100976.34
2018-06-02T00:54:37.288Z,100971.89
2018-06-02T00:57:04.826Z,100973.70
2018-06-02T00:59:32.338Z,100971.14
2018-06-02T01:01:59.828Z,100967.50
2018-06-02T01:04:27.332Z,100968.42
2018-06-02T01:06:54.803Z,100965.00
2018-06-02T01:09:22.307Z,100962.56
2018-06-02T01:11:49.821Z,100966.54
2018-06-02T01:14:17.413Z,100959.37
2018-06-02T01:16:44.924Z,100954.39
2018-06-02T01:19:12.453Z,100958.66
2018-06-02T01:21:39.968Z,100966.23
2018-06-02T01:24:07.549Z,100961.91
2018-06-02T01:26:35.041Z,100964.87
2018-06-02T01:29:02.509Z,100974.20
2018-06-02T01:31:30.015Z,100976.62
2018-06-02T01:33:57.511Z,100981.39
2018-06-02T01:36:25.025Z,100974.39
2018-06-02T01:38:52.514Z,100973.14
2018-06-02T01:41:20.016Z,100975.13
2018-06-02T01:43:47.593Z,100974.41
2018-06-02T01:46:15.059Z,100974.92
2018-06-02T01:48:42.557Z,100980.61
2018-06-02T01:51:10.098Z,100970.95
2018-06-02T01:53:37.668Z,100968.83
2018-06-02T01:56:05.147Z,100969.48
2018-06-02T01:58:32.644Z,100972.11
2018-06-02T02:01:00.732Z,100979.02
2018-06-02T02:03:28.252Z,100972.05
2018-06-02T02:05:55.723Z,100973.09
2018-06-02T02:08:23.245Z,100979.73
2018-06-02T02:10:50.740Z,100975.04
2018-06-02T02:13:18.308Z,100977.94
2018-06-02T02:15:45.796Z,100979.38
2018-06-02T02:18:13.704Z,100977.77
2018-06-02T02:20:41.208Z,100975.55
2018-06-02T02:23:09.738Z,100970.88
2018-06-02T02:25:37.253Z,100973.02
2018-06-02T02:28:04.719Z,100971.52
2018-06-02T02:30:32.265Z,100974.43
2018-06-02T02:32:59.775Z,100986.47
2018-06-02T02:35:27.281Z,100988.38
2018-06-02T02:37:54.752Z,100985.03
2018-06-02T02:40:22.291Z,100981.48
2018-06-02T02:42:49.785Z,100979.92
2018-06-02T02:45:17.262Z,100981.74
2018-06-02T02:47:44.774Z,100981.66
2018-06-02T02:50:12.298Z,100983.77
2018-06-02T02:52:39.845Z,100991.44
2018-06-02T02:55:07.339Z,100980.46
2018-06-02T02:57:34.834Z,100987.44
2018-06-02T03:00:02.330Z,100984.56
2018-06-02T03:02:29.813Z,100987.23
2018-06-02T03:04:57.337Z,101005.55
2018-06-02T03:07:24.829Z,100996.70
2018-06-02T03:09:52.486Z,101008.06
2018-06-02T03:12:19.968Z,101011.98
2018-06-02T03:14:47.447Z,101010.74
2018-06-02T03:17:14.998Z,101009.84
2018-06-02T03:19:42.494Z,101012.74
2018-06-02T03:22:10.051Z,101016.63
2018-06-02T03:24:37.617Z,101019.09
2018-06-02T03:27:05.150Z,101016.79
2018-06-02T03:29:32.670Z,101018.28
2018-06-02T03:32:00.153Z,101020.40
2018-06-02T03:34:27.679Z,101019.98
2018-06-02T03:36:55.168Z,101020.95
2018-06-02T03:39:22.659Z,101022.36
2018-06-02T03:41:50.178Z,101027.84
2018-06-02T03:44:17.669Z,101023.44
2018-06-02T03:46:45.213Z,101030.48
2018-06-02T03:49:12.711Z,101033.73
2018-06-02T03:51:40.247Z,101032.91
2018-06-02T03:54:07.830Z,101044.58
2018-06-02T03:56:35.937Z,101043.14
2018-06-02T03:59:03.435Z,101039.89
2018-06-02T04:01:30.911Z,101047.65
2018-06-02T04:03:58.930Z,101055.89
2018-06-02T04:06:26.424Z,101056.30
2018-06-02T04:08:53.901Z,101055.75
2018-06-02T04:11:21.480Z,101056.83
2018-06-02T04:13:48.966Z,101059.05
2018-06-02T04:16:16.508Z,101058.30
2018-06-02T04:18:44.032Z,101053.67
2018-06-02T04:21:11.527Z,101056.46
2018-06-02T04:23:39.076Z,101056.76
2018-06-02T04:26:06.561Z,101060.86
2018-06-02T04:28:34.080Z,101065.80
2018-06-02T04:31:01.621Z,101070.29
2018-06-02T04:33:29.135Z,101071.16
2018-06-02T04:35:56.676Z,101064.92
2018-06-02T04:38:24.168Z,101059.00
2018-06-02T04:40:51.705Z,101065.09
2018-06-02T04:43:19.208Z,101066.68
2018-06-02T04:45:46.749Z,101072.51
2018-06-02T04:48:14.234Z,101075.34
2018-06-02T04:50:41.817Z,101071.04
2018-06-02T04:53:09.323Z,101072.09
2018-06-02T04:55:37.017Z,101079.55
2018-06-02T04:58:04.499Z,101072.56
2018-06-02T05:00:31.982Z,101070.73
2018-06-02T05:02:59.505Z,101075.55
2018-06-02T05:05:26.996Z,101080.84
2018-06-02T05:07:54.513Z,101078.61
2018-06-02T05:10:22.083Z,101084.61
2018-06-02T05:12:49.554Z,101081.33
2018-06-02T05:15:17.097Z,101085.39
2018-06-02T05:17:44.592Z,101091.03
2018-06-02T05:20:12.111Z,101086.66
2018-06-02T05:22:39.589Z,101092.45
2018-06-02T05:25:07.110Z,101087.14
2018-06-02T05:27:34.589Z,101086.48
2018-06-02T05:30:02.085Z,101094.45
2018-06-02T05:32:29.612Z,101093.59
2018-06-02T05:34:57.151Z,101096.44
2018-06-02T05:37:24.677Z,101091.33
2018-06-02T05:39:52.194Z,101095.41
2018-06-02T05:42:19.691Z,101093.97
2018-06-02T05:44:47.182Z,101100.18
2018-06-02T05:47:14.668Z,101100.03
2018-06-02T05:49:42.173Z,101101.67
2018-06-02T05:52:09.657Z,101100.80
2018-06-02T05:54:37.240Z,101105.99
2018-06-02T05:57:04.694Z,101107.28
2018-06-02T05:59:32.250Z,101107.43
2018-06-02T06:01:59.806Z,101096.79
2018-06-02T06:04:27.293Z,101099.00
2018-06-02T06:06:54.824Z,101093.11
2018-06-02T06:09:22.348Z,101101.48
2018-06-02T06:11:49.839Z,101101.75
2018-06-02T06:14:17.345Z,101103.02
2018-06-02T06:16:44.818Z,101100.66
2018-06-02T06:19:12.368Z,101099.44
2018-06-02T06:21:39.887Z,101095.79
2018-06-02T06:24:07.366Z,101111.08
2018-06-02T06:26:34.916Z,101114.10
2018-06-02T06:29:02.416Z,101116.44
2018-06-02T06:31:29.935Z,101116.80
2018-06-02T06:33:57.426Z,101117.78
2018-06-02T06:36:25.077Z,101115.02
2018-06-02T06:38:52.597Z,101118.16
2018-06-02T06:41:20.133Z,101119.62
2018-06-02T06:43:47.678Z,101122.97
2018-06-02T06:46:15.187Z,101119.84
2018-06-02T06:48:42.739Z,101121.61
2018-06-02T06:51:10.729Z,101122.06
2018-06-02T06:53:38.256Z,101126.97
2018-06-02T06:56:07.791Z,101135.00
2018-06-02T06:58:35.312Z,101132.37
2018-06-02T07:01:04.415Z,101133.45
2018-06-02T07:03:32.066Z,101142.10
2018-06-02T07:05:59.563Z,101139.28
2018-06-02T07:08:27.071Z,101136.45
2018-06-02T07:10:56.679Z,101143.79
2018-06-02T07:13:24.238Z,101142.77
2018-06-02T07:15:51.784Z,101152.27
2018-06-02T07:18:19.306Z,101149.07
2018-06-02T07:20:46.828Z,101147.09
2018-06-02T07:23:14.307Z,101142.97
2018-06-02T07:25:41.818Z,101143.75
2018-06-02T07:28:09.371Z,101140.83
2018-06-02T07:30:36.898Z,101146.75
2018-06-02T07:33:04.423Z,101144.15
2018-06-02T07:35:31.977Z,101154.24
2018-06-02T07:37:59.476Z,101151.09
2018-06-02T07:40:26.997Z,101149.23
2018-06-02T07:42:54.537Z,101153.13
2018-06-02T07:45:22.030Z,101154.41
2018-06-02T07:47:49.572Z,101157.20
2018-06-02T07:50:17.077Z,101150.41
2018-06-02T07:52:44.613Z,101157.84
2018-06-02T07:55:12.110Z,101152.67
2018-06-02T07:57:39.752Z,101150.73
2018-06-02T08:00:07.224Z,101153.14
2018-06-02T08:02:34.707Z,101151.56
2018-06-02T08:05:02.262Z,101153.55
2018-06-02T08:07:29.763Z,101149.12
2018-06-02T08:09:57.316Z,101148.45
2018-06-02T08:15:14.969Z,101152.73
2018-06-02T08:17:42.551Z,101146.62
2018-06-02T08:20:10.076Z,101146.38
2018-06-02T08:22:37.726Z,101143.77
2018-06-02T08:25:05.308Z,101139.89
2018-06-02T08:27:32.870Z,101143.40
2018-06-02T08:30:00.358Z,101142.47
2018-06-02T08:32:27.889Z,101148.98
2018-06-02T08:34:55.362Z,101148.87
2018-06-02T08:37:22.924Z,101150.48
2018-06-02T08:39:50.407Z,101156.09
2018-06-02T08:42:17.926Z,101164.95
2018-06-02T08:44:45.418Z,101160.84
2018-06-02T08:47:13.525Z,101156.13
2018-06-02T08:49:41.013Z,101159.98
2018-06-02T08:52:08.531Z,101162.56
2018-06-02T08:54:36.030Z,101163.39
2018-06-02T08:57:03.519Z,101164.23
2018-06-02T08:59:31.057Z,101166.88
2018-06-02T09:01:58.569Z,101168.09
2018-06-02T09:04:26.092Z,101164.53
2018-06-02T09:06:53.657Z,101170.28
2018-06-02T09:09:21.185Z,101175.19
2018-06-02T09:11:48.695Z,101175.46
2018-06-02T09:14:16.231Z,101178.78
2018-06-02T09:16:43.731Z,101174.80
2018-06-02T09:19:11.259Z,101177.08
2018-06-02T09:21:38.783Z,101181.08
2018-06-02T09:24:06.284Z,101185.73
2018-06-02T09:26:33.791Z,101191.12
2018-06-02T09:29:01.274Z,101192.72
2018-06-02T09:31:28.783Z,101199.08
2018-06-02T09:33:56.289Z,101200.55
2018-06-02T09:36:23.906Z,101204.30
2018-06-02T09:38:51.423Z,101203.89
2018-06-02T09:41:18.938Z,101202.31
2018-06-02T09:43:46.508Z,101198.83
2018-06-02T09:46:14.051Z,101200.55
2018-06-02T09:48:41.606Z,101193.00
2018-06-02T09:51:09.153Z,101191.96
2018-06-02T09:53:36.637Z,101188.05
2018-06-02T09:56:04.172Z,101188.23
2018-06-02T09:58:31.733Z,101189.64
2018-06-02T10:00:59.318Z,101186.86
2018-06-02T10:03:26.868Z,101189.48
2018-06-02T10:05:54.379Z,101195.37
2018-06-02T10:08:21.914Z,101192.88
2018-06-02T10:10:49.395Z,101199.18
2018-06-02T10:13:17.114Z,101201.31
2018-06-02T10:15:44.600Z,101198.59
2018-06-02T10:18:12.138Z,101205.59
2018-06-02T10:20:39.677Z,101202.27
2018-06-02T10:23:07.212Z,101207.89
2018-06-02T10:25:34.821Z,101201.22
2018-06-02T10:28:02.435Z,101202.36
2018-06-02T10:30:29.921Z,101210.41
2018-06-02T10:32:57.468Z,101215.34
2018-06-02T10:35:24.993Z,101216.70
2018-06-02T10:37:52.571Z,101212.31
2018-06-02T10:40:20.083Z,101216.55
2018-06-02T10:42:48.451Z,101223.20
2018-06-02T10:45:15.951Z,101214.38
2018-06-02T10:47:43.684Z,101218.43
2018-06-02T10:50:11.197Z,101219.00
2018-06-02T10:52:38.704Z,101220.67
2018-06-02T10:55:06.259Z,101232.83
2018-06-02T10:57:33.766Z,101233.48
2018-06-02T11:00:01.314Z,101235.16
2018-06-02T11:02:28.860Z,101239.58
2018-06-02T11:04:56.729Z,101240.23
2018-06-02T11:07:24.227Z,101237.44
2018-06-02T11:09:51.758Z,101236.83
2018-06-02T11:12:19.290Z,101246.17
2018-06-02T11:14:46.789Z,101237.55
2018-06-02T11:17:14.339Z,101243.22
2018-06-02T11:19:41.864Z,101237.85
2018-06-02T11:22:09.380Z,101239.73
2018-06-02T11:24:36.893Z,101247.08
2018-06-02T11:27:04.415Z,101242.95
2018-06-02T11:29:31.932Z,101241.36
2018-06-02T11:31:59.577Z,101245.72
2018-06-02T11:34:27.081Z,101239.45
2018-06-02T11:36:54.591Z,101238.01
2018-06-02T11:39:22.129Z,101241.87
2018-06-02T11:41:49.628Z,101239.13
2018-06-02T11:44:17.788Z,101250.16
2018-06-02T11:46:45.304Z,101249.78
2018-06-02T11:49:12.900Z,101251.13
2018-06-02T11:51:40.415Z,101248.27
2018-06-02T11:54:07.915Z,101246.77
2018-06-02T11:56:35.422Z,101254.80
2018-06-02T11:59:02.914Z,101248.48
2018-06-02T12:01:30.477Z,101250.62
2018-06-02T12:03:57.968Z,101254.88
2018-06-02T12:06:25.789Z,101253.86
2018-06-02T12:08:53.298Z,101257.25
2018-06-02T12:11:20.797Z,101252.64
2018-06-02T12:13:48.356Z,101251.94
2018-06-02T12:16:15.822Z,101253.45
2018-06-02T12:18:43.330Z,101253.78
2018-06-02T12:21:10.819Z,101253.05
2018-06-02T12:23:38.339Z,101247.12
2018-06-02T12:26:05.910Z,101255.47
2018-06-02T12:28:33.710Z,101250.92
2018-06-02T12:31:01.446Z,101253.98
2018-06-02T12:33:29.180Z,101251.29
2018-06-02T12:35:56.944Z,101248.00
2018-06-02T12:38:24.466Z,101247.91
2018-06-02T12:40:52.011Z,101249.58
2018-06-02T12:43:19.618Z,101246.63
2018-06-02T12:45:47.130Z,101248.65
2018-06-02T12:48:14.648Z,101248.05
2018-06-02T12:50:42.140Z,101246.22
2018-06-02T12:53:09.685Z,101245.64
2018-06-02T12:55:37.203Z,101245.03
2018-06-02T12:58:04.759Z,101249.98
2018-06-02T13:00:32.252Z,101248.51
2018-06-02T13:02:59.782Z,101253.84
2018-06-02T13:05:27.298Z,101252.31
2018-06-02T13:07:54.803Z,101255.45
2018-06-02T13:10:22.375Z,101255.61
2018-06-02T13:12:50.309Z,101256.98
2018-06-02T13:15:17.885Z,101252.45
2018-06-02T13:17:45.402Z,101249.61
2018-06-02T13:20:12.920Z,101254.73
2018-06-02T13:22:40.410Z,101252.05
2018-06-02T13:25:07.937Z,101249.31
2018-06-02T13:27:35.457Z,101250.18
2018-06-02T13:30:02.956Z,101241.58
2018-06-02T13:32:30.513Z,101244.13
2018-06-02T13:34:58.031Z,101248.44
2018-06-02T13:37:25.585Z,101240.08
2018-06-02T13:39:53.070Z,101242.38
2018-06-02T13:42:20.601Z,101238.61
2018-06-02T13:44:48.082Z,101240.87
2018-06-02T13:47:15.599Z,101237.41
2018-06-02T13:49:43.084Z,101242.44
2018-06-02T13:52:10.569Z,101238.55
2018-06-02T13:54:38.125Z,101243.25
2018-06-02T13:57:05.852Z,101248.58
2018-06-02T13:59:33.425Z,101251.91
2018-06-02T14:02:01.039Z,101251.89
2018-06-02T14:04:28.751Z,101251.36
2018-06-02T14:06:56.326Z,101245.34
2018-06-02T14:09:23.864Z,101246.48
2018-06-02T14:11:51.374Z,101250.63
2018-06-02T14:14:18.968Z,101249.20
2018-06-02T14:16:46.470Z,101258.53
2018-06-02T14:19:13.992Z,101257.25
2018-06-02T14:21:41.505Z,101255.91
2018-06-02T14:24:09.189Z,101260.09
2018-06-02T14:26:36.718Z,101264.98
2018-06-02T14:29:04.712Z,101256.11
2018-06-02T14:31:32.901Z,101254.74
2018-06-02T14:34:00.409Z,101253.02
2018-06-02T14:36:28.033Z,101254.92
2018-06-02T14:38:55.554Z,101260.13
2018-06-02T14:41:23.102Z,101254.03
2018-06-02T14:43:50.630Z,101256.05
2018-06-02T14:46:18.945Z,101254.13
2018-06-02T14:48:46.458Z,101251.41
2018-06-02T14:51:13.976Z,101246.77
2018-06-02T14:53:41.569Z,101246.41
2018-06-02T14:56:09.082Z,101251.64
2018-06-02T14:58:36.628Z,101246.28
2018-06-02T15:01:04.117Z,101246.92
2018-06-02T15:03:31.674Z,101243.23
2018-06-02T15:05:59.157Z,101245.28
2018-06-02T15:08:26.668Z,101245.58
2018-06-02T15:10:54.221Z,101244.73
2018-06-02T15:13:21.804Z,101242.75
2018-06-02T15:15:49.311Z,101243.42
2018-06-02T15:18:16.815Z,101248.38
2018-06-02T15:20:44.350Z,101244.95
2018-06-02T15:23:11.842Z,101252.62
2018-06-02T15:25:39.381Z,101258.34
2018-06-02T15:28:06.884Z,101257.02
2018-06-02T15:30:34.369Z,101254.33
2018-06-02T15:33:01.909Z,101256.56
2018-06-02T15:35:29.457Z,101256.69
2018-06-02T15:37:57.000Z,101249.65
2018-06-02T15:40:24.513Z,101251.08
2018-06-02T15:42:52.015Z,101250.17
2018-06-02T15:45:19.517Z,101251.33
2018-06-02T15:47:47.097Z,101245.70
2018-06-02T15:50:14.585Z,101246.42
2018-06-02T15:52:42.132Z,101248.69
2018-06-02T15:55:09.662Z,101247.02
2018-06-02T15:57:37.120Z,101250.88
2018-06-02T16:00:04.622Z,101250.87
2018-06-02T16:02:32.102Z,101263.48
2018-06-02T16:04:59.606Z,101268.73
2018-06-02T16:07:27.118Z,101273.52
2018-06-02T16:09:54.671Z,101259.01
2018-06-02T16:12:22.196Z,101266.67
2018-06-02T16:14:49.695Z,101260.61
2018-06-02T16:17:17.171Z,101253.23
2018-06-02T16:19:44.713Z,101249.31
2018-06-02T16:22:12.212Z,101253.38
2018-06-02T16:24:39.703Z,101245.40
2018-06-02T16:27:07.258Z,101248.00
2018-06-02T16:29:34.741Z,101255.73
2018-06-02T16:32:02.251Z,101259.56
2018-06-02T16:34:29.755Z,101263.05
2018-06-02T16:36:57.902Z,101262.08
2018-06-02T16:39:25.389Z,101257.42
2018-06-02T16:41:52.941Z,101254.89
2018-06-02T16:44:20.450Z,101252.52
2018-06-02T16:46:47.945Z,101259.28
2018-06-02T16:49:15.447Z,101255.11
2018-06-02T16:51:42.926Z,101265.00
2018-06-02T16:54:10.468Z,101261.08
2018-06-02T16:56:37.993Z,101264.59
2018-06-02T16:59:05.510Z,101270.41
2018-06-02T17:01:33.459Z,101269.86
2018-06-02T17:04:00.965Z,101269.22
2018-06-02T17:06:28.469Z,101270.11
2018-06-02T17:08:56.003Z,101273.14
2018-06-02T17:11:23.503Z,101278.12
2018-06-02T17:13:51.035Z,101280.95
2018-06-02T17:16:18.560Z,101281.19
2018-06-02T17:18:46.533Z,101284.52
2018-06-02T17:21:14.079Z,101280.58
2018-06-02T17:23:42.615Z,101284.16
2018-06-02T17:26:10.181Z,101281.81
2018-06-02T17:28:47.779Z,101276.92
2018-06-02T17:31:15.407Z,101272.37
2018-06-02T17:33:43.881Z,101275.98
2018-06-02T17:36:11.444Z,101275.69
2018-06-02T17:38:39.017Z,101278.13
2018-06-02T17:41:06.519Z,101274.73
2018-06-02T17:43:34.016Z,101269.44
2018-06-02T17:46:01.552Z,101269.09
2018-06-02T17:48:29.134Z,101273.52
2018-06-02T17:50:56.685Z,101278.72
2018-06-02T17:53:24.161Z,101270.87
2018-06-02T17:55:51.710Z,101283.23
2018-06-02T17:58:19.184Z,101280.33
2018-06-02T18:00:46.677Z,101279.92
2018-06-02T18:03:14.220Z,101279.42
2018-06-02T18:05:41.854Z,101279.78
2018-06-02T18:08:09.401Z,101282.08
2018-06-02T18:10:36.928Z,101280.53
2018-06-02T18:13:04.495Z,101280.70
2018-06-02T18:15:32.036Z,101280.07
2018-06-02T18:17:59.541Z,101282.16
2018-06-02T18:20:27.056Z,101282.06
2018-06-02T18:22:54.577Z,101285.72
2018-06-02T18:25:22.049Z,101291.95
2018-06-02T18:27:49.581Z,101296.83
2018-06-02T18:30:17.086Z,101297.17
2018-06-02T18:32:44.616Z,101296.87
2018-06-02T18:35:12.152Z,101297.44
2018-06-02T18:37:39.670Z,101299.39
2018-06-02T18:40:07.204Z,101303.16
2018-06-02T18:42:35.162Z,101310.63
2018-06-02T18:45:02.678Z,101307.38
2018-06-02T18:47:30.216Z,101313.15
2018-06-02T18:49:57.793Z,101312.73
2018-06-02T18:52:25.304Z,101317.16
2018-06-02T18:54:52.791Z,101311.13
2018-06-02T18:57:20.310Z,101319.03
2018-06-02T18:59:47.826Z,101320.11
2018-06-02T19:02:15.362Z,101311.95
2018-06-02T19:04:42.893Z,101316.84
2018-06-02T19:07:10.417Z,101316.17
2018-06-02T19:09:37.931Z,101316.26
2018-06-02T19:12:05.472Z,101313.61
2018-06-02T19:14:32.983Z,101325.20
2018-06-02T19:17:00.489Z,101316.30
2018-06-02T19:19:28.011Z,101323.96
2018-06-02T19:21:55.532Z,101314.77
2018-06-02T19:24:23.037Z,101318.88
2018-06-02T19:26:50.555Z,101317.51
2018-06-02T19:29:18.064Z,101315.88
2018-06-02T19:31:45.529Z,101319.45
2018-06-02T19:34:13.063Z,101320.86
2018-06-02T19:36:40.544Z,101321.59
2018-06-02T19:39:08.056Z,101319.16
2018-06-02T19:41:35.531Z,101319.25
2018-06-02T19:44:03.076Z,101321.11
2018-06-02T19:46:30.593Z,101329.02
2018-06-02T19:48:58.063Z,101331.18
2018-06-02T19:51:25.608Z,101327.98
2018-06-02T19:53:53.094Z,101330.34
2018-06-02T19:56:20.709Z,101332.20
2018-06-02T19:58:48.200Z,101330.47
2018-06-02T20:01:15.771Z,101332.31
2018-06-02T20:03:43.288Z,101320.85
2018-06-02T20:06:10.811Z,101329.41
2018-06-02T20:08:38.300Z,101323.64
2018-06-02T20:11:05.776Z,101318.05
2018-06-02T20:13:34.088Z,101318.63
2018-06-02T20:16:01.603Z,101318.97
2018-06-02T20:18:29.248Z,101327.86
2018-06-02T20:20:57.513Z,101324.02
2018-06-02T20:23:24.998Z,101324.39
2018-06-02T20:25:52.522Z,101327.58
2018-06-02T20:28:20.018Z,101332.13
2018-06-02T20:30:47.535Z,101326.77
2018-06-02T20:33:15.067Z,101332.41
2018-06-02T20:35:42.617Z,101330.12
2018-06-02T20:38:10.183Z,101339.44
2018-06-02T20:40:37.706Z,101334.34
2018-06-02T20:43:05.213Z,101335.23
2018-06-02T20:45:32.719Z,101328.92
2018-06-02T20:48:00.265Z,101340.59
2018-06-02T20:50:27.760Z,101333.94
2018-06-02T20:52:55.311Z,101342.55
2018-06-02T20:55:22.847Z,101336.13
2018-06-02T20:57:50.345Z,101337.42
2018-06-02T21:00:18.002Z,101344.47
2018-06-02T21:02:45.501Z,101343.09
2018-06-02T21:05:13.038Z,101347.53
2018-06-02T21:07:40.529Z,101345.46
2018-06-02T21:10:08.081Z,101341.41
2018-06-02T21:12:35.608Z,101341.60
2018-06-02T21:15:03.140Z,101344.80
2018-06-02T21:17:30.674Z,101340.17
2018-06-02T21:19:58.213Z,101344.12
2018-06-02T21:22:25.718Z,101353.28
2018-06-02T21:25:26.819Z,101353.21
2018-06-02T21:27:55.774Z,101351.29
2018-06-02T21:30:24.090Z,101350.34
2018-06-02T21:32:52.416Z,101355.27
2018-06-02T21:35:20.803Z,101348.70
2018-06-02T21:37:49.266Z,101349.14
2018-06-02T21:40:17.596Z,101354.98
2018-06-02T21:42:45.901Z,101349.48
2018-06-02T21:45:14.266Z,101356.80
2018-06-02T21:47:42.634Z,101350.16
2018-06-02T21:50:11.171Z,101356.23
2018-06-02T21:52:39.561Z,101359.47
2018-06-02T21:55:07.862Z,101354.53
2018-06-02T21:57:36.581Z,101351.34
2018-06-02T22:00:05.810Z,101358.03
2018-06-02T22:02:34.101Z,101355.13
2018-06-02T22:05:02.421Z,101348.16
2018-06-02T22:07:30.746Z,101354.61
2018-06-02T22:09:59.063Z,101363.49
2018-06-02T22:12:27.285Z,101365.05
2018-06-02T22:14:55.682Z,101367.39
2018-06-02T22:17:23.970Z,101358.69
2018-06-02T22:19:52.288Z,101365.70
2018-06-02T22:22:20.688Z,101368.34
2018-06-02T22:24:49.003Z,101364.83
2018-06-02T22:27:17.263Z,101369.37
2018-06-02T22:29:45.534Z,101368.41
2018-06-02T22:32:14.798Z,101358.69
2018-06-02T22:34:43.249Z,101360.05
2018-06-02T22:37:11.575Z,101355.08
2018-06-02T22:39:39.852Z,101361.06
2018-06-02T22:42:08.120Z,101353.64
2018-06-02T22:44:36.430Z,101354.45
2018-06-02T22:47:04.699Z,101352.88
2018-06-02T22:49:32.982Z,101353.28
2018-06-02T22:52:01.323Z,101354.95
2018-06-02T22:54:29.593Z,101346.30
2018-06-02T22:56:57.921Z,101346.66
2018-06-02T22:59:26.295Z,101346.56
2018-06-02T23:01:54.691Z,101340.82
2018-06-02T23:04:23.004Z,101349.75
2018-06-02T23:06:51.494Z,101354.22
2018-06-02T23:09:19.785Z,101361.04
2018-06-02T23:11:48.627Z,101359.83
2018-06-02T23:14:16.955Z,101360.85
2018-06-02T23:16:45.228Z,101354.63
2018-06-02T23:19:13.677Z,101358.92
2018-06-02T23:21:41.977Z,101363.79
2018-06-02T23:24:10.301Z,101363.52
2018-06-02T23:26:38.564Z,101360.20
2018-06-02T23:29:06.872Z,101366.97
2018-06-02T23:31:35.213Z,101361.52
2018-06-02T23:34:03.517Z,101370.05
2018-06-02T23:36:31.762Z,101369.02
2018-06-02T23:39:00.074Z,101370.81
2018-06-02T23:41:28.345Z,101372.05
2018-06-02T23:43:57.249Z,101369.51
2018-06-02T23:46:25.868Z,101374.47
2018-06-02T23:48:54.112Z,101371.53
2018-06-02T23:51:22.390Z,101374.03
2018-06-02T23:53:50.760Z,101371.94
2018-06-02T23:56:19.063Z,101369.56
2018-06-02T23:58:47.306Z,101369.97
